createdAt,value
2022-08-22T00:01:10.835Z,18.74
2022-08-22T00:02:46.449Z,18.98
2022-08-22T00:02:53.828Z,19.03
2022-08-22T00:02:56.461Z,19.11
2022-08-22T00:03:01.451Z,19.33
2022-08-22T00:03:04.031Z,19.27
2022-08-22T00:03:11.074Z,19.02
2022-08-22T00:03:56.757Z,18.70
2022-08-22T00:06:31.203Z,18.69
2022-08-22T00:09:12.197Z,18.64
2022-08-22T00:11:52.794Z,18.62
2022-08-22T00:14:32.492Z,18.68
2022-08-22T00:17:13.211Z,18.76
2022-08-22T00:19:49.674Z,18.69
2022-08-22T00:22:27.230Z,18.65
2022-08-22T00:25:03.601Z,18.67
2022-08-22T00:27:44.891Z,18.72
2022-08-22T00:30:16.309Z,18.71
2022-08-22T00:32:56.128Z,18.73
2022-08-22T00:35:30.531Z,18.71
2022-08-22T00:38:08.259Z,18.70
2022-08-22T00:40:57.397Z,18.67
2022-08-22T00:43:58.515Z,18.63
2022-08-22T00:46:54.107Z,18.64
2022-08-22T00:49:50.331Z,18.65
2022-08-22T00:52:58.063Z,18.63
2022-08-22T00:55:42.481Z,18.64
2022-08-22T00:58:31.901Z,18.63
2022-08-22T01:01:06.830Z,18.58
2022-08-22T01:04:00.114Z,18.61
2022-08-22T01:06:45.149Z,18.56
2022-08-22T01:09:31.196Z,18.52
2022-08-22T01:12:33.223Z,18.51
2022-08-22T01:15:05.704Z,18.52
2022-08-22T01:17:56.229Z,18.50
2022-08-22T01:21:00.711Z,18.52
2022-08-22T01:24:02.191Z,18.54
2022-08-22T01:27:18.518Z,18.57
2022-08-22T01:30:08.218Z,18.55
2022-08-22T01:33:26.753Z,18.56
2022-08-22T01:36:43.411Z,18.55
2022-08-22T01:39:58.557Z,18.55
2022-08-22T01:42:43.026Z,18.51
2022-08-22T01:45:36.721Z,18.47
2022-08-22T01:48:11.771Z,18.49
2022-08-22T01:50:49.497Z,18.49
2022-08-22T01:53:24.737Z,18.44
2022-08-22T01:56:04.067Z,18.51
2022-08-22T01:58:34.920Z,18.56
2022-08-22T02:01:26.744Z,18.51
2022-08-22T02:04:01.552Z,18.49
2022-08-22T02:06:41.687Z,18.44
2022-08-22T02:09:23.782Z,18.43
2022-08-22T02:11:55.782Z,18.42
2022-08-22T02:14:46.125Z,18.37
2022-08-22T02:17:21.352Z,18.42
2022-08-22T02:19:58.608Z,18.39
2022-08-22T02:22:44.471Z,18.47
2022-08-22T02:25:22.634Z,18.43
2022-08-22T02:27:57.541Z,18.34
2022-08-22T02:30:31.652Z,18.25
2022-08-22T02:33:06.892Z,18.23
2022-08-22T02:35:41.181Z,18.22
2022-08-22T02:38:27.411Z,18.21
2022-08-22T02:41:14.574Z,18.19
2022-08-22T02:43:47.962Z,18.25
2022-08-22T02:46:27.895Z,18.21
2022-08-22T02:49:05.308Z,18.11
2022-08-22T02:51:44.046Z,18.08
2022-08-22T02:54:24.768Z,18.07
2022-08-22T02:57:02.789Z,18.04
2022-08-22T02:59:36.451Z,17.99
2022-08-22T03:02:34.738Z,18.02
2022-08-22T03:05:16.718Z,18.00
2022-08-22T03:07:50.153Z,18.04
2022-08-22T03:10:28.763Z,18.05
2022-08-22T03:13:11.688Z,17.98
2022-08-22T03:15:49.535Z,18.09
2022-08-22T03:18:26.066Z,18.09
2022-08-22T03:21:01.066Z,18.09
2022-08-22T03:23:37.819Z,18.09
2022-08-22T03:26:20.140Z,18.07
2022-08-22T03:28:59.363Z,18.07
2022-08-22T03:31:31.135Z,18.07
2022-08-22T03:34:22.393Z,18.10
2022-08-22T03:37:03.768Z,18.08
2022-08-22T03:39:53.554Z,18.11
2022-08-22T03:42:56.600Z,18.11
2022-08-22T03:45:59.105Z,18.02
2022-08-22T03:48:49.898Z,17.96
2022-08-22T03:51:33.844Z,17.95
2022-08-22T03:54:21.856Z,17.99
2022-08-22T03:57:37.770Z,17.97
2022-08-22T04:00:30.377Z,17.99
2022-08-22T04:03:24.268Z,17.96
2022-08-22T04:06:25.912Z,17.92
2022-08-22T04:09:19.472Z,17.94
2022-08-22T04:12:01.690Z,17.99
2022-08-22T04:15:00.389Z,18.00
2022-08-22T04:18:14.598Z,18.07
2022-08-22T04:21:13.072Z,18.06
2022-08-22T04:24:03.458Z,18.11
2022-08-22T04:26:42.706Z,18.11
2022-08-22T04:29:24.044Z,18.02
2022-08-22T04:31:59.992Z,17.98
2022-08-22T04:34:35.552Z,17.95
2022-08-22T04:37:15.387Z,17.92
2022-08-22T04:39:52.484Z,17.93
2022-08-22T04:42:33.087Z,17.96
2022-08-22T04:45:15.082Z,17.97
2022-08-22T04:47:54.265Z,17.97
2022-08-22T04:50:30.925Z,18.03
2022-08-22T04:53:22.583Z,18.05
2022-08-22T04:56:03.019Z,18.04
2022-08-22T04:58:42.982Z,18.02
2022-08-22T05:01:18.683Z,18.02
2022-08-22T05:03:54.821Z,18.03
2022-08-22T05:06:28.706Z,18.08
2022-08-22T05:09:02.192Z,18.03
2022-08-22T05:11:36.530Z,18.03
2022-08-22T05:14:10.252Z,17.94
2022-08-22T05:16:43.142Z,17.85
2022-08-22T05:19:28.383Z,17.83
2022-08-22T05:22:07.370Z,17.77
2022-08-22T05:24:51.075Z,17.76
2022-08-22T05:27:22.450Z,17.78
2022-08-22T05:30:02.207Z,17.79
2022-08-22T05:32:35.642Z,17.80
2022-08-22T05:35:08.713Z,17.89
2022-08-22T05:37:42.452Z,17.89
2022-08-22T05:40:24.537Z,17.87
2022-08-22T05:42:57.721Z,17.88
2022-08-22T05:45:28.462Z,17.83
2022-08-22T05:48:04.383Z,17.82
2022-08-22T05:50:39.895Z,17.80
2022-08-22T05:53:15.165Z,17.77
2022-08-22T05:55:56.354Z,17.82
2022-08-22T05:58:50.231Z,17.88
2022-08-22T06:01:31.278Z,17.85
2022-08-22T06:04:10.099Z,17.91
2022-08-22T06:06:55.392Z,18.02
2022-08-22T06:09:35.286Z,18.11
2022-08-22T06:12:18.176Z,18.08
2022-08-22T06:15:03.515Z,18.23
2022-08-22T06:17:47.937Z,18.19
2022-08-22T06:20:21.201Z,18.32
2022-08-22T06:22:54.083Z,18.37
2022-08-22T06:25:27.408Z,18.47
2022-08-22T06:28:05.074Z,18.55
2022-08-22T06:30:35.219Z,18.62
2022-08-22T06:33:12.320Z,18.66
2022-08-22T06:36:02.101Z,18.70
2022-08-22T06:38:33.545Z,18.74
2022-08-22T06:41:09.115Z,18.83
2022-08-22T06:43:43.633Z,18.82
2022-08-22T06:46:17.639Z,18.92
2022-08-22T06:48:46.814Z,18.92
2022-08-22T06:51:25.018Z,19.00
2022-08-22T06:53:58.057Z,19.05
2022-08-22T06:56:34.987Z,19.12
2022-08-22T06:59:10.181Z,19.36
2022-08-22T07:01:47.650Z,19.45
2022-08-22T07:04:16.923Z,19.53
2022-08-22T07:06:50.097Z,19.57
2022-08-22T07:09:24.381Z,19.76
2022-08-22T07:11:59.640Z,19.83
2022-08-22T07:14:33.255Z,19.86
2022-08-22T07:17:04.814Z,19.70
2022-08-22T07:19:42.692Z,19.69
2022-08-22T07:22:14.729Z,19.68
2022-08-22T07:24:48.367Z,19.99
2022-08-22T07:27:30.847Z,19.89
2022-08-22T07:30:10.019Z,20.11
2022-08-22T07:32:47.593Z,20.25
2022-08-22T07:35:29.900Z,20.31
2022-08-22T07:38:16.745Z,20.10
2022-08-22T07:40:56.741Z,20.07
2022-08-22T07:43:40.278Z,20.14
2022-08-22T07:46:23.817Z,20.33
2022-08-22T07:49:09.112Z,20.36
2022-08-22T07:51:53.925Z,20.30
2022-08-22T07:54:33.753Z,20.36
2022-08-22T07:57:05.917Z,20.55
2022-08-22T07:59:37.031Z,20.47
2022-08-22T08:02:13.610Z,20.75
2022-08-22T08:04:43.585Z,20.91
2022-08-22T08:07:16.059Z,21.09
2022-08-22T08:09:51.793Z,21.21
2022-08-22T08:12:27.507Z,21.03
2022-08-22T08:14:56.863Z,21.02
2022-08-22T08:17:34.461Z,20.92
2022-08-22T08:20:08.027Z,21.06
2022-08-22T08:22:42.125Z,21.19
2022-08-22T08:25:15.749Z,21.01
2022-08-22T08:28:02.514Z,21.06
2022-08-22T08:30:39.649Z,21.00
2022-08-22T08:33:24.757Z,20.98
2022-08-22T08:36:02.551Z,21.05
2022-08-22T08:38:37.149Z,21.19
2022-08-22T08:41:32.189Z,21.32
2022-08-22T08:44:11.167Z,21.39
2022-08-22T08:47:00.141Z,21.58
2022-08-22T08:49:44.183Z,21.55
2022-08-22T08:52:44.547Z,21.39
2022-08-22T08:55:26.774Z,21.55
2022-08-22T08:58:12.278Z,21.57
2022-08-22T09:01:07.633Z,21.31
2022-08-22T09:04:15.306Z,21.49
2022-08-22T09:07:03.784Z,21.51
2022-08-22T09:09:52.381Z,21.66
2022-08-22T09:12:56.100Z,21.82
2022-08-22T09:15:41.724Z,21.98
2022-08-22T09:18:49.112Z,22.08
2022-08-22T09:21:38.040Z,22.14
2022-08-22T09:28:02.472Z,22.76
2022-08-22T09:30:54.131Z,22.86
2022-08-22T09:33:32.190Z,23.13
2022-08-22T09:36:05.225Z,23.20
2022-08-22T09:38:53.856Z,23.57
2022-08-22T09:41:34.401Z,23.49
2022-08-22T09:44:15.433Z,23.17
2022-08-22T09:47:04.935Z,23.66
2022-08-22T09:49:46.826Z,23.32
2022-08-22T09:52:34.089Z,23.40
2022-08-22T09:55:16.230Z,24.06
2022-08-22T09:57:53.650Z,24.18
2022-08-22T10:00:28.510Z,24.15
2022-08-22T10:03:10.550Z,24.04
2022-08-22T10:05:47.047Z,24.47
2022-08-22T10:08:31.087Z,24.73
2022-08-22T10:11:24.971Z,24.64
2022-08-22T10:14:01.162Z,24.29
2022-08-22T10:16:44.049Z,24.59
2022-08-22T10:19:30.565Z,24.76
2022-08-22T10:22:30.227Z,25.04
2022-08-22T10:25:42.130Z,25.63
2022-08-22T10:28:20.538Z,26.03
2022-08-22T10:31:12.663Z,26.24
2022-08-22T10:33:49.060Z,25.97
2022-08-22T10:36:26.744Z,25.94
2022-08-22T10:39:01.451Z,26.50
2022-08-22T10:41:45.495Z,26.28
2022-08-22T10:44:20.666Z,26.19
2022-08-22T10:46:55.423Z,25.90
2022-08-22T10:49:33.493Z,26.11
2022-08-22T10:52:16.992Z,26.02
2022-08-22T10:54:53.567Z,25.71
2022-08-22T10:57:52.077Z,25.43
2022-08-22T11:00:46.585Z,25.60
2022-08-22T11:03:27.576Z,25.91
2022-08-22T11:06:01.922Z,26.32
2022-08-22T11:08:56.178Z,26.62
2022-08-22T11:11:40.641Z,27.02
2022-08-22T11:14:50.704Z,26.91
2022-08-22T11:17:55.592Z,27.15
2022-08-22T11:20:33.607Z,27.17
2022-08-22T11:23:22.909Z,27.22
2022-08-22T11:25:57.569Z,26.87
2022-08-22T11:28:58.057Z,26.60
2022-08-22T11:31:51.980Z,26.62
2022-08-22T11:34:36.624Z,26.85
2022-08-22T11:37:15.594Z,27.00
2022-08-22T11:39:48.994Z,27.01
2022-08-22T11:42:29.525Z,26.34
2022-08-22T11:45:01.383Z,25.90
2022-08-22T11:47:35.609Z,26.23
2022-08-22T11:50:13.415Z,26.22
2022-08-22T11:53:19.514Z,26.46
2022-08-22T11:56:00.907Z,26.66
2022-08-22T11:58:46.338Z,26.76
2022-08-22T12:01:19.200Z,26.67
2022-08-22T12:04:12.844Z,26.80
2022-08-22T12:07:04.720Z,26.43
2022-08-22T12:09:56.298Z,27.14
2022-08-22T12:12:42.284Z,27.23
2022-08-22T12:15:21.298Z,26.92
2022-08-22T12:18:28.693Z,27.37
2022-08-22T12:21:36.852Z,27.85
2022-08-22T12:24:22.154Z,27.64
2022-08-22T12:27:18.400Z,27.87
2022-08-22T12:30:14.380Z,27.95
2022-08-22T12:33:22.046Z,28.12
2022-08-22T12:36:18.764Z,27.98
2022-08-22T12:39:01.718Z,28.33
2022-08-22T12:42:04.339Z,28.34
2022-08-22T12:44:51.240Z,28.27
2022-08-22T12:47:37.170Z,28.48
2022-08-22T12:50:28.451Z,28.29
2022-08-22T12:53:28.424Z,28.41
2022-08-22T12:56:06.336Z,28.28
2022-08-22T12:59:02.422Z,28.09
2022-08-22T13:01:43.018Z,28.53
2022-08-22T13:04:31.023Z,28.84
2022-08-22T13:07:19.222Z,29.18
2022-08-22T13:09:53.472Z,28.92
2022-08-22T13:12:31.804Z,28.73
2022-08-22T13:15:23.813Z,28.95
2022-08-22T13:17:54.404Z,28.62
2022-08-22T13:20:27.910Z,28.40
2022-08-22T13:23:13.408Z,28.19
2022-08-22T13:26:07.619Z,28.91
2022-08-22T13:28:44.302Z,28.99
2022-08-22T13:31:26.714Z,28.68
2022-08-22T13:34:04.268Z,28.48
2022-08-22T13:36:43.166Z,29.24
2022-08-22T13:39:29.818Z,29.28
2022-08-22T13:42:01.524Z,29.57
2022-08-22T13:44:32.130Z,29.38
2022-08-22T13:47:14.314Z,29.67
2022-08-22T13:49:50.436Z,29.33
2022-08-22T13:52:30.150Z,29.11
2022-08-22T13:55:03.688Z,29.16
2022-08-22T13:57:51.010Z,29.63
2022-08-22T14:01:08.994Z,29.54
2022-08-22T14:03:48.508Z,29.56
2022-08-22T14:06:36.930Z,29.45
2022-08-22T14:09:29.342Z,29.96
2022-08-22T14:12:12.679Z,29.82
2022-08-22T14:14:46.022Z,30.49
2022-08-22T14:17:21.723Z,30.61
2022-08-22T14:19:59.643Z,31.07
2022-08-22T14:22:36.896Z,30.99
2022-08-22T14:25:11.777Z,30.85
2022-08-22T14:27:59.697Z,30.92
2022-08-22T14:30:33.846Z,31.39
2022-08-22T14:33:09.884Z,31.13
2022-08-22T14:35:43.702Z,31.35
2022-08-22T14:38:37.887Z,31.68
2022-08-22T14:41:08.780Z,32.05
2022-08-22T14:43:49.914Z,32.17
2022-08-22T14:46:29.408Z,31.59
2022-08-22T14:49:24.758Z,30.41
2022-08-22T14:52:02.162Z,30.24
2022-08-22T14:54:33.733Z,31.52
2022-08-22T14:57:10.117Z,31.68
2022-08-22T14:59:50.324Z,31.53
2022-08-22T15:02:28.768Z,32.02
2022-08-22T15:05:01.537Z,31.30
2022-08-22T15:07:33.349Z,32.29
2022-08-22T15:10:11.902Z,32.63
2022-08-22T15:12:48.309Z,32.53
2022-08-22T15:15:32.565Z,32.24
2022-08-22T15:18:19.793Z,33.13
2022-08-22T15:20:52.094Z,32.83
2022-08-22T15:23:25.349Z,32.54
2022-08-22T15:26:04.960Z,33.01
2022-08-22T15:28:52.542Z,32.70
2022-08-22T15:31:25.585Z,32.93
2022-08-22T15:34:08.019Z,32.49
2022-08-22T15:36:57.587Z,32.33
2022-08-22T15:39:31.876Z,32.16
2022-08-22T15:42:05.285Z,32.64
2022-08-22T15:44:36.596Z,31.75
2022-08-22T15:47:30.419Z,30.03
2022-08-22T15:50:08.777Z,31.50
2022-08-22T15:53:09.764Z,31.56
2022-08-22T15:55:44.584Z,32.24
2022-08-22T15:58:24.193Z,31.67
2022-08-22T16:01:19.641Z,30.84
2022-08-22T16:03:56.490Z,29.53
2022-08-22T16:06:51.198Z,28.48
2022-08-22T16:09:36.322Z,28.18
2022-08-22T16:12:12.072Z,27.65
2022-08-22T16:14:53.574Z,27.44
2022-08-22T16:17:53.458Z,27.47
2022-08-22T16:20:59.228Z,27.90
2022-08-22T16:23:28.591Z,27.89
2022-08-22T16:26:15.500Z,28.71
2022-08-22T16:28:58.896Z,29.42
2022-08-22T16:31:33.966Z,28.61
2022-08-22T16:34:27.923Z,28.15
2022-08-22T16:37:29.244Z,27.30
2022-08-22T16:40:16.617Z,27.02
2022-08-22T16:42:49.876Z,26.83
2022-08-22T16:45:24.501Z,28.91
2022-08-22T16:47:58.260Z,28.32
2022-08-22T16:50:41.024Z,27.53
2022-08-22T16:53:32.420Z,27.04
2022-08-22T16:56:25.772Z,28.16
2022-08-22T16:59:24.062Z,28.11
2022-08-22T17:02:15.684Z,30.18
2022-08-22T17:05:04.316Z,30.53
2022-08-22T17:07:47.135Z,28.46
2022-08-22T17:10:31.434Z,27.47
2022-08-22T17:13:14.223Z,26.79
2022-08-22T17:15:58.673Z,26.45
2022-08-22T17:18:51.170Z,26.12
2022-08-22T17:21:27.086Z,25.90
2022-08-22T17:24:09.742Z,25.65
2022-08-22T17:27:05.817Z,25.46
2022-08-22T17:29:46.104Z,25.42
2022-08-22T17:32:26.039Z,25.36
2022-08-22T17:35:14.554Z,25.37
2022-08-22T17:37:56.651Z,25.42
2022-08-22T17:40:34.401Z,25.44
2022-08-22T17:43:33.565Z,25.46
2022-08-22T17:46:32.388Z,25.40
2022-08-22T17:49:10.274Z,25.28
2022-08-22T17:51:48.024Z,25.21
2022-08-22T17:54:29.851Z,25.16
2022-08-22T17:57:05.751Z,25.15
2022-08-22T17:59:45.612Z,25.16
2022-08-22T18:02:22.343Z,25.14
2022-08-22T18:05:07.201Z,25.06
2022-08-22T18:07:51.823Z,25.05
2022-08-22T18:10:31.499Z,24.95
2022-08-22T18:13:07.327Z,24.79
2022-08-22T18:15:44.573Z,24.62
2022-08-22T18:18:27.023Z,24.64
2022-08-22T18:21:07.224Z,24.54
2022-08-22T18:23:40.832Z,24.55
2022-08-22T18:26:25.650Z,24.58
2022-08-22T18:29:01.028Z,24.56
2022-08-22T18:31:39.506Z,24.44
2022-08-22T18:34:18.776Z,24.43
2022-08-22T18:36:57.104Z,24.35
2022-08-22T18:39:30.737Z,24.28
2022-08-22T18:42:07.203Z,24.32
2022-08-22T18:44:39.296Z,24.33
2022-08-22T18:47:20.092Z,24.26
2022-08-22T18:49:54.247Z,24.12
2022-08-22T18:52:40.883Z,24.00
2022-08-22T18:55:27.830Z,23.86
2022-08-22T18:58:22.423Z,23.72
2022-08-22T19:01:44.329Z,23.52
2022-08-22T19:04:54.303Z,23.62
2022-08-22T19:07:37.204Z,23.58
2022-08-22T19:10:34.497Z,23.80
2022-08-22T19:13:24.992Z,23.87
2022-08-22T19:16:12.765Z,23.85
2022-08-22T19:18:51.816Z,23.73
2022-08-22T19:21:42.264Z,23.66
2022-08-22T19:24:33.730Z,23.65
2022-08-22T19:27:25.161Z,23.38
2022-08-22T19:30:03.041Z,23.21
2022-08-22T19:33:04.057Z,23.09
2022-08-22T19:36:06.898Z,23.00
2022-08-22T19:39:09.191Z,22.88
2022-08-22T19:41:57.163Z,22.65
2022-08-22T19:44:49.943Z,22.48
2022-08-22T19:47:31.465Z,22.43
2022-08-22T19:50:14.639Z,22.29
2022-08-22T19:53:07.901Z,22.14
2022-08-22T19:55:53.193Z,22.01
2022-08-22T19:58:33.305Z,21.92
2022-08-22T20:01:25.097Z,21.95
2022-08-22T20:04:02.210Z,21.98
2022-08-22T20:06:44.411Z,22.12
2022-08-22T20:09:27.575Z,22.10
2022-08-22T20:12:04.708Z,22.12
2022-08-22T20:14:35.617Z,22.01
2022-08-22T20:17:16.465Z,21.84
2022-08-22T20:22:46.905Z,21.57
2022-08-22T20:25:42.454Z,21.48
2022-08-22T20:28:29.710Z,21.40
2022-08-22T20:31:00.451Z,21.34
2022-08-22T20:33:33.718Z,21.30
2022-08-22T20:36:06.745Z,21.27
2022-08-22T20:39:02.256Z,21.37
2022-08-22T20:41:35.154Z,21.37
2022-08-22T20:44:15.149Z,21.54
2022-08-22T20:46:54.985Z,21.35
2022-08-22T20:49:28.472Z,21.17
2022-08-22T20:52:01.579Z,21.09
2022-08-22T20:54:35.294Z,20.94
2022-08-22T20:57:16.075Z,20.83
2022-08-22T20:59:52.951Z,20.69
2022-08-22T21:02:25.309Z,20.65
2022-08-22T21:05:00.201Z,20.56
2022-08-22T21:07:35.821Z,20.50
2022-08-22T21:10:27.915Z,20.41
2022-08-22T21:13:10.645Z,20.39
2022-08-22T21:15:42.318Z,20.30
2022-08-22T21:18:13.142Z,20.28
2022-08-22T21:20:45.305Z,20.31
2022-08-22T21:23:17.196Z,20.26
2022-08-22T21:25:54.518Z,20.17
2022-08-22T21:28:33.854Z,20.09
2022-08-22T21:31:14.119Z,20.07
2022-08-22T21:33:44.996Z,20.00
2022-08-22T21:36:16.701Z,19.96
2022-08-22T21:38:54.044Z,19.87
2022-08-22T21:41:34.813Z,19.86
2022-08-22T21:44:29.669Z,19.82
2022-08-22T21:47:14.235Z,19.75
2022-08-22T21:50:02.266Z,19.71
2022-08-22T21:52:35.270Z,19.80
2022-08-22T21:55:28.443Z,19.72
2022-08-22T21:58:35.063Z,19.63
2022-08-22T22:01:27.557Z,19.61
2022-08-22T22:03:56.673Z,19.61
2022-08-22T22:06:24.995Z,19.56
2022-08-22T22:08:53.557Z,19.59
2022-08-22T22:11:23.374Z,19.62
2022-08-22T22:13:55.166Z,19.67
2022-08-22T22:16:27.451Z,19.71
2022-08-22T22:18:57.169Z,19.65
2022-08-22T22:21:25.513Z,19.72
2022-08-22T22:23:53.909Z,19.72
2022-08-22T22:26:31.213Z,19.82
2022-08-22T22:29:00.253Z,19.82
2022-08-22T22:31:31.718Z,19.85
2022-08-22T22:34:02.295Z,19.84
2022-08-22T22:36:30.776Z,19.85
2022-08-22T22:38:59.187Z,19.87
2022-08-22T22:41:29.042Z,19.81
2022-08-22T22:43:58.764Z,19.86
2022-08-22T22:46:27.865Z,19.88
2022-08-22T22:48:56.990Z,19.95
2022-08-22T22:51:25.868Z,19.95
2022-08-22T22:53:54.169Z,19.88
2022-08-22T22:56:24.253Z,19.83
2022-08-22T22:59:00.871Z,19.80
2022-08-22T23:02:03.676Z,19.76
2022-08-22T23:04:36.721Z,19.81
2022-08-22T23:07:06.455Z,19.82
2022-08-22T23:09:38.792Z,19.81
2022-08-22T23:12:15.266Z,19.79
2022-08-22T23:14:47.626Z,19.79
2022-08-22T23:17:16.726Z,19.77
2022-08-22T23:19:46.270Z,19.79
2022-08-22T23:22:16.216Z,19.71
2022-08-22T23:24:44.539Z,19.62
2022-08-22T23:27:17.571Z,19.52
2022-08-22T23:29:47.721Z,19.45
2022-08-22T23:32:16.299Z,19.53
2022-08-22T23:34:48.860Z,19.55
2022-08-22T23:37:19.945Z,19.47
2022-08-22T23:39:49.095Z,19.38
2022-08-22T23:42:18.494Z,19.32
2022-08-22T23:44:54.618Z,19.35
2022-08-22T23:47:23.073Z,19.25
2022-08-22T23:49:51.412Z,19.23
2022-08-22T23:52:20.813Z,19.17
2022-08-22T23:54:54.549Z,19.17
2022-08-22T23:57:27.475Z,19.23
2022-08-22T23:59:58.465Z,19.23
